Time;durP1;ratioP1;P1;durP2;ratioP2;P2;SDS_P1;SDS_P2;PMS_P1;PMS_P2;Temp;Humidity;BMP_temperature;BMP_pressure;BME280_temperature;BME280_humidity;BME280_pressure;Samples;Min_cycle;Max_cycle;Signal;HPM_P1;HPM_P2
2020/12/30 00:01:08;;;;;;;10.60;6.83;;;;;;;-1.23;88.71;93770.75;5023302;28;20185;-76
2020/12/30 00:03:34;;;;;;;7.53;5.80;;;;;;;-1.25;88.54;93765.75;5047689;28;20606;-75
2020/12/30 00:06:00;;;;;;;6.33;5.43;;;;;;;-1.27;89.04;93769.34;5030888;28;20209;-76
2020/12/30 00:08:25;;;;;;;6.43;4.43;;;;;;;-1.25;88.99;93767.50;5032046;28;20633;-75
2020/12/30 00:10:50;;;;;;;5.57;3.90;;;;;;;-1.17;88.87;93765.97;5031366;28;20215;-75
2020/12/30 00:13:18;;;;;;;5.43;4.00;;;;;;;-1.02;88.99;93774.16;5038773;28;20217;-76
2020/12/30 00:15:43;;;;;;;5.13;3.80;;;;;;;-0.96;88.59;93770.31;5030269;28;20221;-75
2020/12/30 00:18:08;;;;;;;5.90;4.03;;;;;;;-1.01;88.33;93775.75;5014245;28;20204;-76
2020/12/30 00:20:34;;;;;;;5.93;4.47;;;;;;;-1.09;88.57;93777.28;5031701;28;20177;-76
2020/12/30 00:22:59;;;;;;;6.07;4.90;;;;;;;-1.04;88.26;93773.47;5029741;28;20240;-75
2020/12/30 00:25:26;;;;;;;7.77;5.43;;;;;;;-1.11;88.45;93769.78;5030458;28;20233;-76
2020/12/30 00:27:51;;;;;;;6.63;5.67;;;;;;;-1.18;88.45;93778.81;5014188;28;20186;-75
2020/12/30 00:30:17;;;;;;;7.23;5.40;;;;;;;-1.10;88.59;93773.94;5039909;28;20204;-76
2020/12/30 00:32:44;;;;;;;5.67;5.07;;;;;;;-1.10;88.46;93773.94;5040178;28;20197;-75
2020/12/30 00:35:10;;;;;;;7.33;5.37;;;;;;;-1.03;88.36;93777.63;5046623;28;20182;-75
2020/12/30 00:37:35;;;;;;;7.77;5.80;;;;;;;-1.07;88.02;93775.44;5038520;28;20182;-75
2020/12/30 00:40:01;;;;;;;8.87;6.13;;;;;;;-1.11;88.26;93774.88;5051266;28;20178;-75
2020/12/30 00:42:33;;;;;;;9.37;5.13;;;;;;;-1.10;88.63;93773.94;5050205;28;20190;-75
2020/12/30 00:44:59;;;;;;;6.73;5.53;;;;;;;-1.06;88.55;93782.13;5022696;28;20556;-75
2020/12/30 00:47:25;;;;;;;7.27;5.63;;;;;;;-1.03;88.57;93779.38;5031580;28;20182;-76
2020/12/30 00:49:50;;;;;;;8.30;6.17;;;;;;;-0.93;88.63;93780.25;5029469;28;20209;-76
2020/12/30 00:52:16;;;;;;;8.27;6.10;;;;;;;-0.98;88.53;93792.53;5030216;28;20241;-75
2020/12/30 00:54:41;;;;;;;7.00;5.97;;;;;;;-0.99;88.59;93786.63;5029603;28;20645;-75
2020/12/30 00:57:06;;;;;;;7.90;6.37;;;;;;;-0.97;89.00;93794.16;5030016;28;20255;-76
2020/12/30 00:59:32;;;;;;;6.43;5.67;;;;;;;-0.94;88.84;93793.94;5013416;28;20188;-75
2020/12/30 01:01:57;;;;;;;7.90;6.30;;;;;;;-0.92;89.01;93799.72;5031149;28;20646;-75
2020/12/30 01:04:22;;;;;;;9.37;6.40;;;;;;;-0.89;88.85;93797.72;5015270;28;20186;-75
2020/12/30 01:06:51;;;;;;;9.63;5.90;;;;;;;-0.82;88.38;93802.34;5035061;28;20221;-75
2020/12/30 01:09:17;;;;;;;10.67;5.73;;;;;;;-0.81;88.32;93801.41;5016493;28;20190;-75
2020/12/30 01:11:43;;;;;;;6.17;5.40;;;;;;;-0.88;88.21;93807.00;5014292;28;20209;-75
2020/12/30 01:14:08;;;;;;;7.07;5.90;;;;;;;-0.89;88.41;93807.09;5014207;28;20594;-75
2020/12/30 01:16:33;;;;;;;6.40;5.50;;;;;;;-0.91;88.43;93814.06;5033218;28;20225;-75
2020/12/30 01:18:59;;;;;;;8.20;5.33;;;;;;;-0.93;88.41;93814.19;5034808;28;20708;-75
2020/12/30 01:21:24;;;;;;;8.20;5.57;;;;;;;-0.99;88.37;93822.31;5033744;28;20186;-76
2020/12/30 01:23:49;;;;;;;7.53;5.40;;;;;;;-1.00;88.46;93823.25;5017402;28;20217;-75
2020/12/30 01:26:14;;;;;;;6.83;5.97;;;;;;;-0.95;88.68;93817.78;5031874;28;20209;-76
2020/12/30 01:28:41;;;;;;;8.43;4.63;;;;;;;-1.03;88.28;93820.13;5033537;28;20287;-76
2020/12/30 01:31:06;;;;;;;7.17;5.27;;;;;;;-1.11;88.71;93836.00;5016971;28;20312;-76
2020/12/30 01:33:32;;;;;;;7.00;5.50;;;;;;;-1.19;88.30;93831.50;5035014;28;20265;-76
2020/12/30 01:35:57;;;;;;;5.90;5.10;;;;;;;-1.15;88.38;93838.00;5033663;28;20201;-76
2020/12/30 01:38:22;;;;;;;7.37;5.27;;;;;;;-1.16;88.81;93844.00;5048015;28;20200;-76
2020/12/30 01:40:53;;;;;;;8.37;5.90;;;;;;;-1.22;88.81;93844.50;5016871;28;20186;-76
2020/12/30 01:43:19;;;;;;;7.60;5.90;;;;;;;-1.23;88.72;93842.06;5017140;28;20200;-76
2020/12/30 01:45:44;;;;;;;7.00;5.47;;;;;;;-1.18;88.90;93845.06;5015684;28;20575;-76
2020/12/30 01:48:15;;;;;;;6.53;5.27;;;;;;;-1.19;88.54;93848.53;5033074;28;20189;-76
2020/12/30 01:50:41;;;;;;;7.80;5.33;;;;;;;-1.16;88.57;93845.72;5029960;28;20524;-76
2020/12/30 01:53:07;;;;;;;8.67;6.13;;;;;;;-1.28;88.79;93844.94;5013385;28;20183;-76
2020/12/30 01:55:40;;;;;;;10.07;6.33;;;;;;;-1.30;88.78;93846.81;5013548;28;20237;-76
2020/12/30 01:58:09;;;;;;;7.03;5.70;;;;;;;-1.30;89.01;93846.81;5037931;28;20262;-76
2020/12/30 02:00:35;;;;;;;6.53;5.70;;;;;;;-1.29;89.04;93848.44;5032902;28;20185;-76
2020/12/30 02:03:03;;;;;;;6.43;5.73;;;;;;;-1.22;88.90;93853.88;5034463;28;20519;-76
2020/12/30 02:05:32;;;;;;;7.70;6.00;;;;;;;-1.28;89.41;93859.44;5032988;28;20205;-76
2020/12/30 02:08:07;;;;;;;7.70;5.93;;;;;;;-1.32;89.43;93856.31;5031033;28;20180;-76
2020/12/30 02:10:32;;;;;;;9.63;6.80;;;;;;;-1.23;88.86;93867.53;5032767;28;20230;-76
2020/12/30 02:12:58;;;;;;;6.00;5.40;;;;;;;-1.12;88.78;93859.88;5032932;28;20201;-76
2020/12/30 02:15:26;;;;;;;6.97;6.27;;;;;;;-1.18;88.97;93862.88;5031916;28;20197;-76
2020/12/30 02:17:52;;;;;;;9.30;6.20;;;;;;;-1.19;88.99;93868.91;5015677;28;20221;-76
2020/12/30 02:20:17;;;;;;;7.87;5.73;;;;;;;-1.18;88.97;93878.97;5032475;28;20235;-76
2020/12/30 02:22:43;;;;;;;8.50;6.33;;;;;;;-1.21;88.85;93870.78;5032937;28;20263;-76
2020/12/30 02:25:09;;;;;;;7.20;6.10;;;;;;;-1.20;89.28;93870.66;5016234;28;20182;-76
2020/12/30 02:27:34;;;;;;;8.23;5.80;;;;;;;-1.19;89.48;93874.00;5016111;28;20218;-76
2020/12/30 02:29:59;;;;;;;7.00;6.00;;;;;;;-1.21;88.87;93866.47;5053657;28;20198;-76
2020/12/30 02:32:25;;;;;;;7.87;6.20;;;;;;;-1.14;89.24;93866.81;5049279;28;20205;-76
2020/12/30 02:34:50;;;;;;;7.87;6.13;;;;;;;-1.05;89.07;93873.75;5032676;28;20236;-75
2020/12/30 02:37:15;;;;;;;9.50;6.10;;;;;;;-1.13;88.97;93878.63;5033834;28;20624;-76
2020/12/30 02:39:40;;;;;;;8.30;6.87;;;;;;;-1.11;88.61;93876.78;5030244;28;20197;-76
2020/12/30 02:42:06;;;;;;;8.00;6.53;;;;;;;-1.15;88.69;93875.38;5030271;28;20205;-76
2020/12/30 02:44:31;;;;;;;8.00;6.57;;;;;;;-1.19;89.13;93879.09;5048901;28;20657;-76
2020/12/30 02:46:56;;;;;;;7.63;6.23;;;;;;;-1.17;88.37;93879.78;5032328;28;20238;-76
2020/12/30 02:49:22;;;;;;;7.97;5.83;;;;;;;-1.27;88.86;93878.88;5031290;28;20181;-76
2020/12/30 02:51:47;;;;;;;6.37;5.67;;;;;;;-1.35;89.00;93874.34;5032337;28;20221;-76
2020/12/30 02:54:12;;;;;;;7.70;6.03;;;;;;;-1.30;88.82;93881.66;5016743;28;20179;-76
2020/12/30 02:56:38;;;;;;;6.73;5.70;;;;;;;-1.34;88.64;93877.72;5012393;28;20198;-76
2020/12/30 02:59:03;;;;;;;8.13;6.10;;;;;;;-1.36;89.34;93884.66;5012189;28;20653;-76
2020/12/30 03:01:29;;;;;;;7.87;5.80;;;;;;;-1.42;89.26;93883.38;5022770;28;20189;-76
2020/12/30 03:03:54;;;;;;;7.87;6.07;;;;;;;-1.39;89.17;93874.72;5032058;28;20747;-76
2020/12/30 03:06:23;;;;;;;7.60;6.00;;;;;;;-1.48;89.35;93879.59;5033261;28;20205;-76
2020/12/30 03:08:48;;;;;;;8.40;6.47;;;;;;;-1.58;89.40;93881.22;5015142;28;20186;-76
2020/12/30 03:11:14;;;;;;;7.73;6.17;;;;;;;-1.47;89.13;93877.84;5029719;28;20216;-76
2020/12/30 03:13:39;;;;;;;6.10;5.50;;;;;;;-1.57;89.13;93882.03;5032931;28;20188;-76
2020/12/30 03:16:04;;;;;;;7.90;5.50;;;;;;;-1.60;89.46;93879.69;5033051;28;20204;-76
2020/12/30 03:18:30;;;;;;;6.73;5.37;;;;;;;-1.61;89.19;93883.16;5031642;28;20637;-76
2020/12/30 03:20:55;;;;;;;6.43;5.03;;;;;;;-1.62;89.70;93887.44;5015196;28;20267;-76
2020/12/30 03:23:20;;;;;;;5.80;5.07;;;;;;;-1.66;89.28;93885.25;5031145;28;20195;-76
2020/12/30 03:25:46;;;;;;;6.03;4.73;;;;;;;-1.60;89.65;93880.50;5019560;28;20210;-76
2020/12/30 03:28:11;;;;;;;6.93;4.83;;;;;;;-1.66;89.13;93893.69;5011722;28;20332;-76
2020/12/30 03:30:37;;;;;;;7.30;4.87;;;;;;;-1.71;89.51;93888.13;5012608;28;20729;-76
2020/12/30 03:33:02;;;;;;;5.50;4.73;;;;;;;-1.73;89.31;93889.97;5035164;28;20189;-76
2020/12/30 03:35:28;;;;;;;5.13;4.17;;;;;;;-1.75;89.52;93890.09;5047810;28;20201;-76
2020/12/30 03:37:56;;;;;;;6.90;4.80;;;;;;;-1.78;89.24;93892.84;5031479;28;20181;-76
2020/12/30 03:40:21;;;;;;;4.33;3.93;;;;;;;-1.65;89.38;93895.31;5032306;28;20178;-75
2020/12/30 03:42:47;;;;;;;4.90;4.40;;;;;;;-1.71;89.17;93891.47;5030254;28;20186;-75
2020/12/30 03:45:12;;;;;;;6.90;4.27;;;;;;;-1.77;88.84;93888.56;5013999;28;20538;-76
2020/12/30 03:47:38;;;;;;;5.03;3.87;;;;;;;-1.75;89.21;93894.38;5047867;28;20206;-75
2020/12/30 03:50:04;;;;;;;6.20;4.67;;;;;;;-1.76;89.05;93895.31;5030794;28;20244;-76
2020/12/30 03:52:29;;;;;;;6.17;4.30;;;;;;;-1.74;89.20;93901.91;5014525;28;20248;-76
2020/12/30 03:54:54;;;;;;;4.80;3.63;;;;;;;-1.66;89.51;93893.69;5029290;28;20194;-75
2020/12/30 03:57:20;;;;;;;4.80;4.10;;;;;;;-1.57;89.12;93899.84;5030795;28;20236;-76
2020/12/30 03:59:45;;;;;;;6.93;4.40;;;;;;;-1.59;89.41;93896.56;5030799;28;20184;-76
2020/12/30 04:02:10;;;;;;;5.10;4.20;;;;;;;-1.61;89.28;93899.25;5032214;28;20219;-76
2020/12/30 04:04:36;;;;;;;6.17;4.50;;;;;;;-1.59;89.29;93894.88;5029874;28;20542;-75
2020/12/30 04:07:01;;;;;;;5.40;4.77;;;;;;;-1.49;89.29;93895.78;5047315;28;20572;-77
2020/12/30 04:09:27;;;;;;;5.57;4.30;;;;;;;-1.49;88.77;93894.97;5014375;28;20190;-76
2020/12/30 04:11:52;;;;;;;5.67;4.10;;;;;;;-1.57;88.91;93900.66;5030613;28;20709;-76
2020/12/30 04:14:18;;;;;;;4.30;3.73;;;;;;;-1.59;88.90;93899.97;5030896;28;20212;-75
2020/12/30 04:16:43;;;;;;;3.93;3.53;;;;;;;-1.62;88.82;93904.44;5029813;28;20213;-75
2020/12/30 04:19:08;;;;;;;5.83;3.90;;;;;;;-1.76;88.77;93903.75;5014260;28;20600;-76
2020/12/30 04:21:34;;;;;;;7.23;4.57;;;;;;;-1.72;88.62;93906.88;5011054;28;20183;-75
2020/12/30 04:23:59;;;;;;;6.10;4.77;;;;;;;-1.73;88.27;93900.97;5011032;28;20183;-75
2020/12/30 04:26:24;;;;;;;5.17;4.47;;;;;;;-1.68;88.65;93908.25;5016944;28;20266;-76
2020/12/30 04:28:50;;;;;;;5.53;4.40;;;;;;;-1.74;88.66;93907.00;5030269;28;20200;-76
2020/12/30 04:31:16;;;;;;;5.10;4.27;;;;;;;-1.82;88.38;93900.84;5030552;28;20564;-75
2020/12/30 04:33:42;;;;;;;7.37;4.97;;;;;;;-1.85;89.07;93911.25;5014116;28;20653;-75
2020/12/30 04:36:08;;;;;;;6.23;4.83;;;;;;;-1.81;88.73;93907.56;5029736;28;20200;-75
2020/12/30 04:38:35;;;;;;;5.77;4.83;;;;;;;-1.75;88.88;93914.75;5028552;28;20177;-75
2020/12/30 04:41:14;;;;;;;5.83;4.70;;;;;;;-1.85;88.96;93924.78;5015362;28;20182;-75
2020/12/30 04:43:43;;;;;;;6.13;5.00;;;;;;;-1.78;88.71;93922.59;5010842;28;20599;-75
2020/12/30 04:46:12;;;;;;;7.37;5.50;;;;;;;-1.85;88.84;93922.25;5011835;28;20205;-76
2020/12/30 04:48:38;;;;;;;9.27;5.00;;;;;;;-1.75;89.23;93928.28;5015722;28;20668;-75
2020/12/30 04:51:03;;;;;;;5.27;4.50;;;;;;;-1.77;89.36;93936.94;5030322;28;20200;-75
2020/12/30 04:53:29;;;;;;;6.10;4.23;;;;;;;-1.82;89.52;93933.94;5031453;28;20189;-75
2020/12/30 04:55:58;;;;;;;4.73;4.07;;;;;;;-1.80;89.51;93927.78;5028166;28;20716;-76
2020/12/30 04:58:27;;;;;;;6.40;3.80;;;;;;;-1.83;89.58;93932.31;5030062;28;20186;-75
2020/12/30 05:00:52;;;;;;;4.93;3.40;;;;;;;-1.71;89.48;93928.84;5030199;28;20173;-75
2020/12/30 05:03:29;;;;;;;5.87;3.27;;;;;;;-1.55;89.16;93933.63;5030284;28;20180;-75
2020/12/30 05:05:56;;;;;;;4.10;3.13;;;;;;;-1.62;89.16;93928.16;5013042;28;20217;-75
2020/12/30 05:08:22;;;;;;;4.73;2.90;;;;;;;-1.46;88.91;93928.66;5037306;28;20268;-75
2020/12/30 05:10:49;;;;;;;4.97;2.87;;;;;;;-1.46;89.12;93931.19;5029028;28;20631;-75
2020/12/30 05:13:14;;;;;;;6.27;2.30;;;;;;;-1.39;88.92;93926.47;5031391;28;20181;-75
2020/12/30 05:15:40;;;;;;;2.30;2.10;;;;;;;-1.31;88.94;93929.25;5046728;28;20198;-76
2020/12/30 05:18:07;;;;;;;4.33;2.00;;;;;;;-1.28;88.81;93934.09;5028045;28;20562;-75
2020/12/30 05:20:36;;;;;;;6.00;2.40;;;;;;;-1.26;88.80;93939.88;5029606;28;20182;-76
2020/12/30 05:23:11;;;;;;;4.33;2.30;;;;;;;-1.22;89.06;93951.47;5030262;28;20174;-75
2020/12/30 05:25:41;;;;;;;3.83;2.20;;;;;;;-1.23;88.97;93951.59;5013644;28;20205;-75
2020/12/30 05:28:09;;;;;;;3.37;2.10;;;;;;;-1.20;89.00;93948.78;5009507;28;20195;-75
2020/12/30 05:30:34;;;;;;;3.93;1.63;;;;;;;-1.15;88.92;93941.59;5029352;28;20217;-75
2020/12/30 05:33:00;;;;;;;3.53;2.03;;;;;;;-1.16;88.76;93955.25;5029887;28;20259;-75
2020/12/30 05:35:29;;;;;;;3.87;1.80;;;;;;;-1.12;88.84;93951.56;5030069;28;20559;-75
2020/12/30 05:37:55;;;;;;;2.57;1.70;;;;;;;-1.13;89.06;93955.06;5030070;28;20183;-75
2020/12/30 05:40:32;;;;;;;3.23;2.03;;;;;;;-1.08;88.94;93955.50;5034360;28;20276;-75
2020/12/30 05:43:15;;;;;;;3.97;1.70;;;;;;;-1.05;88.61;93960.38;5030069;28;20209;-75
2020/12/30 05:45:45;;;;;;;3.20;2.17;;;;;;;-1.07;88.42;93954.56;5029777;28;20545;-75
2020/12/30 05:48:11;;;;;;;3.93;2.30;;;;;;;-1.08;88.29;93958.03;5029891;28;20178;-75
2020/12/30 05:50:49;;;;;;;2.80;1.93;;;;;;;-1.02;88.43;93966.97;5030252;28;20341;-75
2020/12/30 05:53:15;;;;;;;3.60;2.60;;;;;;;-1.09;88.29;93970.91;5017652;28;20186;-75
2020/12/30 05:55:40;;;;;;;3.80;2.57;;;;;;;-1.10;89.01;93975.19;4997228;28;20206;-75
2020/12/30 05:58:12;;;;;;;3.97;3.00;;;;;;;-1.18;88.34;93972.41;5013604;28;20182;-75
2020/12/30 06:00:37;;;;;;;4.37;3.10;;;;;;;-1.18;88.61;93974.97;5039115;28;20228;-75
2020/12/30 06:03:03;;;;;;;4.23;2.97;;;;;;;-1.16;88.82;93975.66;5033206;28;20197;-75
2020/12/30 06:05:28;;;;;;;6.37;3.37;;;;;;;-1.19;88.20;93975.88;5034537;28;20230;-76
2020/12/30 06:07:55;;;;;;;6.80;2.97;;;;;;;-1.13;88.53;93977.16;5033327;28;20182;-76
2020/12/30 06:10:22;;;;;;;6.90;2.77;;;;;;;-1.20;88.31;93984.47;5014672;28;20218;-76
2020/12/30 06:12:47;;;;;;;3.43;2.90;;;;;;;-1.24;88.73;93978.75;5032915;28;20189;-76
2020/12/30 06:15:14;;;;;;;3.77;2.80;;;;;;;-1.16;88.54;93989.19;5034310;28;20180;-76
2020/12/30 06:17:56;;;;;;;5.47;3.20;;;;;;;-1.10;88.22;93995.56;5033135;28;20681;-76
2020/12/30 06:20:23;;;;;;;4.87;3.13;;;;;;;-1.20;88.73;93985.25;5032782;28;20645;-76
2020/12/30 06:22:54;;;;;;;8.20;3.20;;;;;;;-1.14;88.31;93994.19;5032197;28;20532;-76
2020/12/30 06:25:20;;;;;;;6.97;3.03;;;;;;;-1.10;88.20;93995.56;5015194;28;20202;-74
2020/12/30 06:27:47;;;;;;;3.33;3.03;;;;;;;-1.17;88.45;93999.50;5013228;28;20261;-74
2020/12/30 06:30:14;;;;;;;5.07;2.83;;;;;;;-1.13;88.21;93998.38;5012622;28;20187;-75
2020/12/30 06:32:39;;;;;;;5.03;2.80;;;;;;;-1.13;88.64;94006.00;5021700;28;20200;-76
2020/12/30 06:35:04;;;;;;;5.17;3.23;;;;;;;-1.10;88.51;94005.75;5016020;28;20190;-76
2020/12/30 06:37:34;;;;;;;3.87;2.70;;;;;;;-1.07;88.10;94008.06;5032646;28;20205;-75
2020/12/30 06:40:29;;;;;;;4.03;2.40;;;;;;;-1.05;88.34;94008.78;5016013;28;20274;-75
2020/12/30 06:42:57;;;;;;;4.73;3.00;;;;;;;-1.06;88.45;94022.47;5030619;28;20206;-75
2020/12/30 06:45:49;;;;;;;4.13;2.13;;;;;;;-1.05;88.31;94018.97;5032363;28;20195;-76
2020/12/30 06:48:28;;;;;;;4.43;2.70;;;;;;;-1.01;88.41;94020.34;5031347;28;20245;-75
2020/12/30 06:50:53;;;;;;;5.37;2.83;;;;;;;-1.01;87.94;94017.00;5032420;28;20237;-76
2020/12/30 06:53:21;;;;;;;5.73;3.20;;;;;;;-1.06;87.72;94022.47;5031930;28;20259;-76
2020/12/30 06:55:47;;;;;;;4.40;3.03;;;;;;;-1.06;88.24;94030.09;5036284;28;20576;-76
2020/12/30 06:58:42;;;;;;;3.10;2.60;;;;;;;-1.05;87.87;94024.06;5033428;28;20178;-76
2020/12/30 07:01:07;;;;;;;5.40;3.10;;;;;;;-1.10;88.05;94035.53;5030468;28;20204;-76
2020/12/30 07:03:32;;;;;;;5.83;3.20;;;;;;;-1.18;88.30;94042.00;5047543;28;20194;-76
2020/12/30 07:06:21;;;;;;;4.23;2.83;;;;;;;-1.14;88.12;94040.06;5032614;28;20262;-76
2020/12/30 07:08:46;;;;;;;5.30;2.97;;;;;;;-1.11;87.75;94062.75;5012656;28;20198;-76
2020/12/30 07:11:11;;;;;;;10.50;3.90;;;;;;;-1.16;87.76;94055.41;4995783;28;20221;-76
2020/12/30 07:13:40;;;;;;;6.27;3.97;;;;;;;-1.17;87.60;94060.63;4995924;28;20226;-76
2020/12/30 07:16:13;;;;;;;5.40;4.10;;;;;;;-1.26;87.94;94062.13;5011159;28;20396;-76
2020/12/30 07:18:41;;;;;;;9.57;4.33;;;;;;;-1.22;87.82;94072.91;5024061;28;20194;-76
2020/12/30 07:21:17;;;;;;;5.97;4.33;;;;;;;-1.33;87.48;94071.13;5032960;28;20180;-76
2020/12/30 07:23:43;;;;;;;7.10;4.60;;;;;;;-1.30;88.08;94075.22;5032994;28;20259;-76
2020/12/30 07:26:20;;;;;;;7.97;4.60;;;;;;;-1.35;87.94;94072.97;5037830;28;20232;-75
2020/12/30 07:28:46;;;;;;;12.60;4.67;;;;;;;-1.38;88.00;94092.78;5041107;28;20189;-75
2020/12/30 07:31:12;;;;;;;8.13;4.87;;;;;;;-1.40;87.81;94085.25;5014991;28;20220;-76
2020/12/30 07:33:38;;;;;;;7.00;3.97;;;;;;;-1.40;88.08;94090.34;5031609;28;20184;-77
2020/12/30 07:36:04;;;;;;;8.10;4.23;;;;;;;-1.39;87.96;94091.16;5029647;28;20790;-76
2020/12/30 07:38:32;;;;;;;5.60;4.17;;;;;;;-1.39;87.81;94101.34;5047718;28;20182;-75
2020/12/30 07:41:08;;;;;;;7.60;5.80;;;;;;;-1.35;87.93;94102.72;5031497;28;20178;-75
2020/12/30 07:43:52;;;;;;;5.03;4.40;;;;;;;-1.37;87.94;94105.41;5031357;28;20762;-75
2020/12/30 07:46:21;;;;;;;6.10;5.50;;;;;;;-1.26;87.52;94107.16;5030328;28;20213;-74
2020/12/30 07:48:47;;;;;;;10.40;6.53;;;;;;;-1.16;87.72;94113.19;5049821;28;20189;-76
2020/12/30 07:51:13;;;;;;;16.87;12.60;;;;;;;-1.18;87.54;94122.69;5023527;28;20229;-75
2020/12/30 07:53:38;;;;;;;13.20;9.33;;;;;;;-1.15;87.42;94130.09;5045667;28;20559;-75
2020/12/30 07:56:04;;;;;;;14.93;12.60;;;;;;;-1.14;87.63;94136.84;5013148;28;20216;-75
2020/12/30 07:58:29;;;;;;;7.30;6.40;;;;;;;-1.06;87.28;94128.63;5036730;28;20192;-76
2020/12/30 08:00:54;;;;;;;8.77;4.63;;;;;;;-1.00;87.46;94136.63;5032224;28;20185;-75
2020/12/30 08:03:20;;;;;;;6.10;5.50;;;;;;;-1.01;87.15;94142.66;5047338;28;20186;-76
2020/12/30 08:05:47;;;;;;;10.13;4.90;;;;;;;-0.99;86.95;94151.00;5030762;28;20201;-75
2020/12/30 08:08:12;;;;;;;6.47;4.47;;;;;;;-0.93;87.11;94158.19;5028992;28;20664;-75
2020/12/30 08:10:38;;;;;;;8.63;4.37;;;;;;;-0.97;86.74;94151.72;5013986;28;20177;-75
2020/12/30 08:13:07;;;;;;;5.13;4.20;;;;;;;-0.94;86.64;94159.13;5030258;28;20642;-75
2020/12/30 08:15:32;;;;;;;5.07;3.63;;;;;;;-0.92;86.27;94152.19;5030848;28;20205;-75
2020/12/30 08:17:59;;;;;;;8.97;4.27;;;;;;;-0.92;86.09;94162.38;5014352;28;20190;-75
2020/12/30 08:20:24;;;;;;;4.93;3.90;;;;;;;-0.89;86.47;94154.50;5029233;28;20203;-76
2020/12/30 08:22:56;;;;;;;5.37;3.67;;;;;;;-0.88;86.30;94163.78;5017272;28;20190;-75
2020/12/30 08:25:21;;;;;;;5.33;3.73;;;;;;;-0.90;86.43;94154.59;4978407;28;20203;-76
2020/12/30 08:27:47;;;;;;;3.97;3.27;;;;;;;-0.79;85.91;94161.50;5012341;28;20186;-76
2020/12/30 08:30:12;;;;;;;4.43;3.27;;;;;;;-0.73;86.05;94158.47;5026378;28;20202;-74
2020/12/30 08:32:46;;;;;;;5.63;3.83;;;;;;;-0.68;85.72;94164.84;5031717;28;20289;-77
2020/12/30 08:35:30;;;;;;;5.77;3.60;;;;;;;-0.72;85.80;94167.72;5130089;27;20526;-75
2020/12/30 08:38:11;;;;;;;4.50;3.60;;;;;;;-0.75;85.55;94168.78;5128863;28;20251;-76
2020/12/30 08:40:37;;;;;;;5.07;3.70;;;;;;;-0.72;85.79;94172.84;5131190;27;20296;-76
2020/12/30 08:43:19;;;;;;;6.17;3.47;;;;;;;-0.69;85.67;94172.63;5141905;27;20645;-76
2020/12/30 08:45:51;;;;;;;5.33;3.63;;;;;;;-0.60;85.65;94171.94;5149510;27;20190;-76
2020/12/30 08:48:17;;;;;;;5.20;3.50;;;;;;;-0.67;85.67;94179.22;5149251;27;20201;-76
2020/12/30 08:50:44;;;;;;;4.43;3.20;;;;;;;-0.61;85.49;94175.41;5143222;27;20179;-76
2020/12/30 08:53:10;;;;;;;4.50;3.03;;;;;;;-0.55;85.02;94185.16;5135620;27;20182;-76
2020/12/30 08:55:35;;;;;;;5.70;3.50;;;;;;;-0.52;84.94;94182.38;5108087;28;20541;-76
2020/12/30 08:58:01;;;;;;;8.17;5.07;;;;;;;-0.61;85.22;94176.22;5107608;28;20179;-76
2020/12/30 09:00:32;;;;;;;7.67;3.97;;;;;;;-0.47;85.11;94180.28;5102456;27;20322;-75
2020/12/30 09:03:11;;;;;;;8.03;4.50;;;;;;;-0.48;84.63;94176.13;5092686;28;20676;-77
2020/12/30 09:05:36;;;;;;;5.10;3.63;;;;;;;-0.41;84.01;94182.38;5087719;28;20192;-75
2020/12/30 09:08:15;;;;;;;5.80;3.17;;;;;;;-0.38;84.33;94182.16;5087414;28;20176;-76
2020/12/30 09:10:41;;;;;;;4.80;3.20;;;;;;;-0.37;83.92;94188.88;5090434;28;20182;-77
2020/12/30 09:13:20;;;;;;;6.73;2.90;;;;;;;-0.27;84.18;94194.09;5099051;28;20521;-76
2020/12/30 09:15:46;;;;;;;5.70;3.10;;;;;;;-0.25;84.09;94199.09;5107690;28;20208;-76
2020/12/30 09:18:12;;;;;;;4.73;3.47;;;;;;;-0.18;84.21;94192.59;5090613;28;20182;-76
2020/12/30 09:20:38;;;;;;;5.73;3.57;;;;;;;-0.06;83.79;94191.69;5102509;28;20189;-75
2020/12/30 09:23:04;;;;;;;5.40;3.00;;;;;;;0.01;83.50;94197.13;5112516;28;20189;-76
2020/12/30 09:25:31;;;;;;;5.67;3.30;;;;;;;-0.02;83.54;94188.75;5106378;28;20210;-76
2020/12/30 09:27:57;;;;;;;6.57;3.60;;;;;;;0.00;83.24;94196.31;5107300;28;20225;-75
2020/12/30 09:30:25;;;;;;;5.77;3.40;;;;;;;0.09;83.18;94200.72;5107244;28;20166;-77
2020/12/30 09:32:52;;;;;;;6.43;2.60;;;;;;;0.10;83.21;94202.34;5097259;28;20263;-76
2020/12/30 09:35:19;;;;;;;6.63;2.80;;;;;;;0.01;82.97;94203.06;5089147;28;20201;-76
2020/12/30 09:37:57;;;;;;;6.47;2.30;;;;;;;-0.03;83.43;94201.63;5088137;28;20176;-77
2020/12/30 09:40:24;;;;;;;5.37;2.60;;;;;;;-0.02;83.43;94201.50;5086484;28;20176;-76
2020/12/30 09:42:49;;;;;;;4.63;2.70;;;;;;;-0.04;83.78;94210.22;5073773;28;20179;-75
2020/12/30 09:45:16;;;;;;;5.43;3.23;;;;;;;-0.01;83.66;94217.63;5093607;28;20180;-76
2020/12/30 09:47:42;;;;;;;7.13;2.87;;;;;;;-0.03;83.58;94216.94;5093496;28;20219;-76
2020/12/30 09:50:10;;;;;;;4.10;3.07;;;;;;;-0.04;83.78;94215.34;5093201;28;20668;-76
2020/12/30 09:52:37;;;;;;;7.07;4.07;;;;;;;0.05;83.41;94222.28;5088631;28;20546;-75
2020/12/30 09:55:06;;;;;;;3.80;3.40;;;;;;;0.08;84.00;94222.03;5064108;28;20704;-76
2020/12/30 09:57:32;;;;;;;6.07;4.20;;;;;;;-0.01;83.89;94220.19;5075879;28;20655;-76
2020/12/30 09:59:59;;;;;;;6.13;3.87;;;;;;;0.20;83.29;94217.75;5094240;28;20263;-76
2020/12/30 10:02:24;;;;;;;5.07;3.20;;;;;;;0.18;83.66;94222.19;5093459;28;20188;-77
2020/12/30 10:04:50;;;;;;;6.70;3.20;;;;;;;0.18;83.96;94223.00;5083441;28;20233;-76
2020/12/30 10:07:15;;;;;;;4.53;3.33;;;;;;;0.19;83.83;94223.81;5076881;28;20276;-77
2020/12/30 10:09:41;;;;;;;3.00;2.70;;;;;;;0.43;82.82;94223.63;5073635;28;20234;-76
2020/12/30 10:12:06;;;;;;;6.23;3.10;;;;;;;0.44;83.16;94227.81;5074032;28;20538;-76
2020/12/30 10:14:31;;;;;;;5.47;3.50;;;;;;;0.59;82.90;94234.28;5074111;28;20292;-77
2020/12/30 10:16:57;;;;;;;6.80;3.83;;;;;;;0.60;82.90;94228.25;5085549;28;20907;-76
2020/12/30 10:19:22;;;;;;;5.83;3.40;;;;;;;0.74;82.71;94233.09;5092568;28;20177;-76
2020/12/30 10:21:47;;;;;;;8.17;4.20;;;;;;;0.83;82.16;94237.50;5092667;28;20185;-76
2020/12/30 10:24:13;;;;;;;8.90;4.00;;;;;;;0.95;82.16;94240.00;5092779;28;20527;-76
2020/12/30 10:26:38;;;;;;;5.47;3.70;;;;;;;0.88;82.03;94239.66;5075616;28;20207;-76
2020/12/30 10:29:03;;;;;;;4.90;2.80;;;;;;;0.99;81.91;94236.28;5076502;28;20645;-76
2020/12/30 10:31:29;;;;;;;4.93;2.73;;;;;;;1.01;81.89;94240.34;5072459;28;20180;-76
2020/12/30 10:33:54;;;;;;;5.83;2.60;;;;;;;0.89;81.70;94235.41;5072269;28;20278;-76
2020/12/30 10:36:21;;;;;;;3.27;2.10;;;;;;;1.07;81.88;94244.16;5073806;28;20834;-75
2020/12/30 10:38:46;;;;;;;4.43;2.27;;;;;;;1.07;81.52;94239.03;5061816;28;20205;-76
2020/12/30 10:41:16;;;;;;;3.00;2.10;;;;;;;1.12;81.13;94242.03;5072231;28;20714;-76
2020/12/30 10:43:42;;;;;;;2.00;1.70;;;;;;;1.19;81.14;94239.81;5072283;28;20173;-75
2020/12/30 10:46:14;;;;;;;4.63;2.27;;;;;;;1.27;81.01;94245.13;5068756;28;20902;-75
2020/12/30 10:48:47;;;;;;;4.53;1.80;;;;;;;1.47;81.18;94243.50;5072294;28;20177;-75
2020/12/30 10:51:14;;;;;;;2.63;1.90;;;;;;;1.44;80.97;94243.75;5072099;28;20649;-75
2020/12/30 10:53:39;;;;;;;1.67;1.57;;;;;;;1.52;80.93;94254.19;5055270;28;20193;-75
2020/12/30 10:56:05;;;;;;;5.33;2.30;;;;;;;1.49;80.21;94252.66;5078441;28;20211;-75
2020/12/30 10:58:30;;;;;;;2.90;1.60;;;;;;;1.37;80.20;94254.47;5082502;28;20172;-76
2020/12/30 11:00:56;;;;;;;2.33;1.47;;;;;;;1.39;80.73;94254.34;5092147;28;20317;-75
2020/12/30 11:03:21;;;;;;;2.80;2.47;;;;;;;1.50;80.15;94256.03;5075249;28;20255;-75
2020/12/30 11:05:46;;;;;;;4.03;2.47;;;;;;;1.51;80.08;94252.56;5084964;28;20193;-75
2020/12/30 11:08:12;;;;;;;5.50;2.97;;;;;;;1.58;80.38;94253.66;5081378;28;20170;-75
2020/12/30 11:10:37;;;;;;;6.20;3.37;;;;;;;1.62;80.19;94262.72;5092847;28;20185;-75
2020/12/30 11:13:02;;;;;;;2.73;2.43;;;;;;;1.62;80.33;94262.72;5093069;28;20169;-76
2020/12/30 11:15:27;;;;;;;3.17;1.70;;;;;;;1.40;80.23;94267.00;5092551;28;20592;-76
2020/12/30 11:17:53;;;;;;;2.90;2.50;;;;;;;1.51;80.09;94270.47;5080893;28;20214;-76
2020/12/30 11:20:18;;;;;;;3.83;3.33;;;;;;;1.37;80.86;94269.81;5089079;28;20172;-77
2020/12/30 11:22:43;;;;;;;4.80;4.10;;;;;;;1.29;81.17;94274.75;5093025;28;20172;-76
2020/12/30 11:25:09;;;;;;;16.90;11.67;;;;;;;1.27;81.47;94273.25;5091634;28;20671;-76
2020/12/30 11:27:34;;;;;;;12.07;7.50;;;;;;;1.17;81.81;94270.63;5082526;28;20656;-76
2020/12/30 11:29:59;;;;;;;9.97;5.63;;;;;;;1.22;82.18;94267.69;5082619;28;20192;-76
2020/12/30 11:32:25;;;;;;;7.13;4.53;;;;;;;1.22;82.58;94276.16;5091594;28;20229;-75
2020/12/30 11:34:50;;;;;;;5.10;3.50;;;;;;;1.27;81.98;94275.81;5092569;28;20668;-75